createdAt,value
2022-11-13T00:00:54.723Z,8.63
2022-11-13T00:03:21.164Z,8.64
2022-11-13T00:05:47.601Z,8.69
2022-11-13T00:08:14.393Z,8.64
2022-11-13T00:10:40.937Z,8.55
2022-11-13T00:13:07.345Z,8.56
2022-11-13T00:15:33.781Z,8.59
2022-11-13T00:18:03.565Z,8.60
2022-11-13T00:20:30.051Z,8.58
2022-11-13T00:22:56.515Z,8.55
2022-11-13T00:25:22.960Z,8.50
2022-11-13T00:27:49.485Z,8.51
2022-11-13T00:30:19.567Z,8.63
2022-11-13T00:32:46.309Z,8.51
2022-11-13T00:35:12.888Z,8.49
2022-11-13T00:37:39.293Z,8.62
2022-11-13T00:40:06.070Z,8.47
2022-11-13T00:42:32.499Z,8.42
2022-11-13T00:44:58.902Z,8.38
2022-11-13T00:47:25.304Z,8.38
2022-11-13T00:49:51.730Z,8.34
2022-11-13T00:52:18.129Z,8.31
2022-11-13T00:54:44.533Z,8.33
2022-11-13T00:57:10.923Z,8.45
2022-11-13T00:59:37.375Z,8.45
2022-11-13T01:02:03.853Z,8.38
2022-11-13T01:04:30.343Z,8.45
2022-11-13T01:06:56.798Z,8.50
2022-11-13T01:09:23.230Z,8.49
2022-11-13T01:11:49.647Z,8.49
2022-11-13T01:14:16.096Z,8.46
2022-11-13T01:16:42.506Z,8.64
2022-11-13T01:19:09.007Z,8.45
2022-11-13T01:21:35.462Z,8.38
2022-11-13T01:24:01.903Z,8.38
2022-11-13T01:26:30.388Z,8.44
2022-11-13T01:28:58.495Z,8.38
2022-11-13T01:31:28.660Z,8.47
2022-11-13T01:33:55.231Z,8.48
2022-11-13T01:36:24.886Z,8.26
2022-11-13T01:38:51.841Z,8.37
2022-11-13T01:41:30.740Z,8.33
2022-11-13T01:43:57.624Z,8.31
2022-11-13T01:46:29.827Z,8.31
2022-11-13T01:49:10.370Z,8.38
2022-11-13T01:51:45.322Z,8.36
2022-11-13T01:54:19.009Z,8.31
2022-11-13T01:56:45.746Z,8.21
2022-11-13T01:59:16.028Z,8.23
2022-11-13T02:01:42.531Z,8.27
2022-11-13T02:04:09.376Z,8.27
2022-11-13T02:06:48.321Z,8.29
2022-11-13T02:09:17.721Z,8.19
2022-11-13T02:11:44.944Z,8.25
2022-11-13T02:14:13.979Z,8.28
2022-11-13T02:16:42.943Z,8.34
2022-11-13T02:19:40.667Z,8.26
2022-11-13T02:22:29.003Z,8.30
2022-11-13T02:24:58.655Z,8.26
2022-11-13T02:27:36.846Z,8.20
2022-11-13T02:30:16.293Z,8.21
2022-11-13T02:32:45.506Z,8.30
2022-11-13T02:35:14.998Z,8.30
2022-11-13T02:37:42.196Z,8.32
2022-11-13T02:40:09.171Z,8.24
2022-11-13T02:42:35.699Z,8.29
2022-11-13T02:45:02.194Z,8.33
2022-11-13T02:47:29.118Z,8.28
2022-11-13T02:49:55.596Z,8.23
2022-11-13T02:52:22.172Z,8.34
2022-11-13T02:54:48.587Z,8.34
2022-11-13T02:57:14.986Z,8.48
2022-11-13T02:59:41.728Z,8.38
2022-11-13T03:02:08.221Z,8.39
2022-11-13T03:05:04.880Z,8.31
2022-11-13T03:07:21.150Z,8.37
2022-11-13T03:09:47.597Z,8.31
2022-11-13T03:12:14.059Z,8.30
2022-11-13T03:14:40.469Z,8.43
2022-11-13T03:17:06.891Z,8.35
2022-11-13T03:19:33.313Z,8.42
2022-11-13T03:21:59.737Z,8.49
2022-11-13T03:24:26.163Z,8.54
2022-11-13T03:26:52.579Z,8.49
2022-11-13T03:29:19.002Z,8.39
2022-11-13T03:31:45.448Z,8.42
2022-11-13T03:34:11.898Z,8.46
2022-11-13T03:36:38.529Z,8.45
2022-11-13T03:39:04.955Z,8.47
2022-11-13T03:41:31.375Z,8.36
2022-11-13T03:43:57.758Z,8.44
2022-11-13T03:46:24.435Z,8.47
2022-11-13T03:48:50.881Z,8.44
2022-11-13T03:51:17.335Z,8.57
2022-11-13T03:53:43.755Z,8.42
2022-11-13T03:56:10.196Z,8.49
2022-11-13T03:58:40.152Z,8.46
2022-11-13T04:01:07.006Z,8.40
2022-11-13T04:03:33.463Z,8.42
2022-11-13T04:05:59.862Z,8.28
2022-11-13T04:08:26.600Z,8.35
2022-11-13T04:10:53.188Z,8.30
2022-11-13T04:13:19.584Z,8.35
2022-11-13T04:15:46.399Z,8.32
2022-11-13T04:18:12.811Z,8.35
2022-11-13T04:20:39.239Z,8.31
2022-11-13T04:23:09.616Z,8.26
2022-11-13T04:25:36.078Z,8.41
2022-11-13T04:28:02.487Z,8.35
2022-11-13T04:30:28.919Z,8.43
2022-11-13T04:32:55.364Z,8.36
2022-11-13T04:35:21.982Z,8.36
2022-11-13T04:37:48.456Z,8.36
2022-11-13T04:40:15.112Z,8.28
2022-11-13T04:42:50.444Z,8.26
2022-11-13T04:45:19.681Z,8.38
2022-11-13T04:47:46.338Z,8.32
2022-11-13T04:50:14.263Z,8.13
2022-11-13T04:52:41.403Z,8.10
2022-11-13T04:55:08.895Z,8.13
2022-11-13T04:57:35.825Z,8.19
2022-11-13T05:00:02.604Z,8.26
2022-11-13T05:02:29.019Z,8.16
2022-11-13T05:04:56.086Z,8.08
2022-11-13T05:07:26.416Z,8.04
2022-11-13T05:09:53.781Z,8.05
2022-11-13T05:12:21.092Z,8.08
2022-11-13T05:14:47.482Z,8.09
2022-11-13T05:17:14.305Z,8.09
2022-11-13T05:19:40.694Z,8.14
2022-11-13T05:22:07.183Z,8.18
2022-11-13T05:24:33.599Z,8.21
2022-11-13T05:27:00.000Z,8.17
2022-11-13T05:29:26.499Z,8.02
2022-11-13T05:31:52.948Z,7.96
2022-11-13T05:34:19.419Z,7.89
2022-11-13T05:36:45.834Z,7.97
2022-11-13T05:39:12.213Z,7.98
2022-11-13T05:41:38.675Z,7.87
2022-11-13T05:44:05.114Z,7.96
2022-11-13T05:46:31.555Z,7.97
2022-11-13T05:49:00.879Z,8.00
2022-11-13T05:51:29.776Z,7.96
2022-11-13T05:53:56.985Z,7.96
2022-11-13T05:56:31.856Z,7.98
2022-11-13T05:58:59.981Z,8.01
2022-11-13T06:01:44.350Z,8.10
2022-11-13T06:04:10.793Z,8.14
2022-11-13T06:06:37.220Z,8.14
2022-11-13T06:09:05.797Z,8.11
2022-11-13T06:11:32.701Z,8.16
2022-11-13T06:13:59.859Z,8.06
2022-11-13T06:16:34.790Z,8.14
2022-11-13T06:19:03.455Z,8.11
2022-11-13T06:21:32.185Z,8.14
2022-11-13T06:24:00.360Z,8.04
2022-11-13T06:26:33.183Z,8.16
2022-11-13T06:29:00.834Z,8.05
2022-11-13T06:31:30.007Z,7.95
2022-11-13T06:33:59.016Z,8.05
2022-11-13T06:36:28.080Z,8.07
2022-11-13T06:38:54.767Z,8.08
2022-11-13T06:41:23.368Z,7.97
2022-11-13T06:43:50.207Z,7.91
2022-11-13T06:46:24.874Z,7.93
2022-11-13T06:48:51.578Z,7.97
2022-11-13T06:51:23.229Z,7.94
2022-11-13T06:53:50.627Z,8.03
2022-11-13T06:56:18.458Z,7.95
2022-11-13T06:58:46.017Z,7.96
2022-11-13T07:01:18.959Z,8.05
2022-11-13T07:03:46.239Z,7.99
2022-11-13T07:06:19.097Z,7.90
2022-11-13T07:08:47.513Z,7.87
2022-11-13T07:11:17.007Z,7.86
2022-11-13T07:13:46.436Z,7.88
2022-11-13T07:16:17.989Z,7.91
2022-11-13T07:18:52.091Z,7.87
2022-11-13T07:21:19.670Z,7.81
2022-11-13T07:23:49.405Z,7.87
2022-11-13T07:26:17.931Z,7.85
2022-11-13T07:28:45.253Z,7.86
2022-11-13T07:31:13.179Z,7.94
2022-11-13T07:33:39.602Z,7.96
2022-11-13T07:36:06.679Z,7.90
2022-11-13T07:38:33.068Z,7.97
2022-11-13T07:40:59.955Z,8.02
2022-11-13T07:43:26.859Z,7.77
2022-11-13T07:45:56.704Z,7.86
2022-11-13T07:48:24.018Z,8.05
2022-11-13T07:50:50.869Z,7.87
2022-11-13T07:53:18.062Z,7.94
2022-11-13T07:55:44.526Z,7.97
2022-11-13T07:58:11.148Z,8.14
2022-11-13T08:00:37.619Z,8.13
2022-11-13T08:03:09.862Z,8.24
2022-11-13T08:05:36.570Z,8.51
2022-11-13T08:08:03.530Z,8.51
2022-11-13T08:10:30.122Z,8.46
2022-11-13T08:13:02.049Z,8.25
2022-11-13T08:15:29.624Z,8.19
2022-11-13T08:17:59.157Z,8.31
2022-11-13T08:20:27.241Z,8.48
2022-11-13T08:22:57.607Z,8.43
2022-11-13T08:25:24.392Z,8.27
2022-11-13T08:27:53.380Z,8.41
2022-11-13T08:30:20.587Z,8.39
2022-11-13T08:32:50.169Z,8.47
2022-11-13T08:35:19.895Z,8.39
2022-11-13T08:37:47.480Z,8.36
2022-11-13T08:40:14.253Z,8.37
2022-11-13T08:42:40.757Z,8.46
2022-11-13T08:45:08.207Z,8.55
2022-11-13T08:47:34.807Z,8.51
2022-11-13T08:50:01.262Z,8.63
2022-11-13T08:52:27.728Z,8.49
2022-11-13T08:54:54.646Z,8.40
2022-11-13T08:57:21.092Z,8.65
2022-11-13T08:59:47.481Z,8.66
2022-11-13T09:02:15.664Z,8.54
2022-11-13T09:04:42.813Z,8.50
2022-11-13T09:07:09.519Z,8.48
2022-11-13T09:09:35.971Z,8.65
2022-11-13T09:12:02.440Z,8.72
2022-11-13T09:14:28.864Z,8.83
2022-11-13T09:16:55.258Z,8.80
2022-11-13T09:19:22.052Z,8.82
2022-11-13T09:21:48.451Z,8.69
2022-11-13T09:24:14.923Z,8.76
2022-11-13T09:26:41.399Z,8.71
2022-11-13T09:29:07.903Z,8.83
2022-11-13T09:31:34.420Z,8.92
2022-11-13T09:34:00.846Z,9.01
2022-11-13T09:36:27.239Z,9.04
2022-11-13T09:38:53.629Z,9.13
2022-11-13T09:41:27.535Z,9.07
2022-11-13T09:43:59.808Z,9.07
2022-11-13T09:46:43.912Z,9.04
2022-11-13T09:49:15.936Z,9.05
2022-11-13T09:51:52.776Z,9.00
2022-11-13T09:54:20.653Z,9.00
2022-11-13T09:57:15.638Z,9.09
2022-11-13T09:59:53.150Z,9.14
2022-11-13T10:02:42.612Z,9.08
2022-11-13T10:05:46.099Z,9.21
2022-11-13T10:08:18.484Z,9.13
2022-11-13T10:10:53.700Z,9.18
2022-11-13T10:13:32.872Z,9.23
2022-11-13T10:16:14.242Z,9.34
2022-11-13T10:18:43.272Z,9.25
2022-11-13T10:21:27.763Z,9.13
2022-11-13T10:23:56.607Z,9.27
2022-11-13T10:26:27.847Z,9.38
2022-11-13T10:29:03.194Z,9.43
2022-11-13T10:31:29.684Z,9.31
2022-11-13T10:33:57.356Z,9.25
2022-11-13T10:37:03.447Z,9.28
2022-11-13T10:39:30.232Z,9.23
2022-11-13T10:41:56.814Z,9.26
2022-11-13T10:44:29.923Z,9.37
2022-11-13T10:47:26.480Z,9.38
2022-11-13T10:50:19.467Z,9.58
2022-11-13T10:52:48.567Z,9.60
2022-11-13T10:55:26.332Z,9.47
2022-11-13T10:57:58.467Z,9.57
2022-11-13T11:00:37.141Z,9.62
2022-11-13T11:03:03.574Z,9.47
2022-11-13T11:05:30.121Z,9.18
2022-11-13T11:07:57.570Z,9.23
2022-11-13T11:10:36.189Z,9.20
2022-11-13T11:13:09.848Z,9.36
2022-11-13T11:15:44.725Z,9.40
2022-11-13T11:18:25.731Z,9.51
2022-11-13T11:20:56.651Z,9.38
2022-11-13T11:23:56.197Z,9.55
2022-11-13T11:26:42.236Z,9.55
2022-11-13T11:29:34.098Z,9.51
2022-11-13T11:32:28.293Z,9.55
2022-11-13T11:35:12.048Z,9.44
2022-11-13T11:37:43.948Z,9.42
2022-11-13T11:40:24.254Z,9.32
2022-11-13T11:43:18.419Z,9.51
2022-11-13T11:45:46.809Z,9.53
2022-11-13T11:48:30.926Z,9.52
2022-11-13T11:51:28.016Z,9.71
2022-11-13T11:53:54.407Z,9.80
2022-11-13T11:56:32.561Z,9.69
2022-11-13T11:59:06.756Z,9.72
2022-11-13T12:01:54.248Z,9.72
2022-11-13T12:04:43.787Z,9.67
2022-11-13T12:07:29.416Z,9.58
2022-11-13T12:10:20.834Z,9.68
2022-11-13T12:13:12.829Z,9.80
2022-11-13T12:15:52.129Z,9.69
2022-11-13T12:18:43.100Z,9.64
2022-11-13T12:21:22.328Z,9.60
2022-11-13T12:24:16.763Z,9.65
2022-11-13T12:27:11.226Z,9.62
2022-11-13T12:30:17.120Z,9.50
2022-11-13T12:33:02.920Z,9.57
2022-11-13T12:35:30.239Z,9.57
2022-11-13T12:38:21.733Z,9.63
2022-11-13T12:40:54.040Z,9.62
2022-11-13T12:43:39.196Z,9.51
2022-11-13T12:46:11.619Z,9.49
2022-11-13T12:48:41.965Z,9.47
2022-11-13T12:51:18.510Z,9.51
2022-11-13T12:53:50.348Z,9.62
2022-11-13T12:56:30.950Z,9.36
2022-11-13T12:59:28.627Z,9.40
2022-11-13T13:01:56.901Z,9.26
2022-11-13T13:05:08.407Z,9.35
2022-11-13T13:07:50.067Z,9.34
2022-11-13T13:10:27.273Z,9.26
2022-11-13T13:13:22.619Z,9.37
2022-11-13T13:15:59.681Z,9.45
2022-11-13T13:18:35.132Z,9.42
2022-11-13T13:21:06.140Z,9.39
2022-11-13T13:23:44.394Z,9.35
2022-11-13T13:26:13.696Z,9.38
2022-11-13T13:28:43.135Z,9.40
2022-11-13T13:31:12.288Z,9.55
2022-11-13T13:33:44.664Z,9.55
2022-11-13T13:36:38.123Z,9.60
2022-11-13T13:39:32.040Z,9.53
2022-11-13T13:42:16.923Z,9.48
2022-11-13T13:45:23.724Z,9.48
2022-11-13T13:47:54.761Z,9.48
2022-11-13T13:50:24.930Z,9.53
2022-11-13T13:52:55.992Z,9.48
2022-11-13T13:55:26.470Z,9.55
2022-11-13T13:57:53.197Z,9.49
2022-11-13T14:00:21.328Z,9.39
2022-11-13T14:02:50.587Z,9.38
2022-11-13T14:05:29.173Z,9.26
2022-11-13T14:07:55.779Z,9.21
2022-11-13T14:10:28.298Z,9.23
2022-11-13T14:12:56.254Z,9.32
2022-11-13T14:15:28.813Z,9.20
2022-11-13T14:18:15.089Z,9.02
2022-11-13T14:20:52.477Z,9.00
2022-11-13T14:23:28.373Z,8.89
2022-11-13T14:25:56.677Z,8.94
2022-11-13T14:28:29.127Z,8.95
2022-11-13T14:30:59.727Z,8.95
2022-11-13T14:33:40.743Z,9.01
2022-11-13T14:36:07.669Z,9.06
2022-11-13T14:38:36.926Z,8.96
2022-11-13T14:41:04.471Z,9.02
2022-11-13T14:43:33.149Z,8.97
2022-11-13T14:46:05.727Z,8.85
2022-11-13T14:48:34.388Z,8.87
2022-11-13T14:51:02.984Z,8.93
2022-11-13T14:53:37.910Z,8.98
2022-11-13T14:56:09.206Z,8.98
2022-11-13T14:58:43.740Z,9.03
2022-11-13T15:01:18.258Z,9.31
2022-11-13T15:03:46.545Z,9.32
2022-11-13T15:06:40.493Z,9.22
2022-11-13T15:09:11.226Z,9.21
2022-11-13T15:11:40.257Z,9.14
2022-11-13T15:14:18.005Z,9.18
2022-11-13T15:16:46.448Z,9.20
2022-11-13T15:19:30.005Z,9.09
2022-11-13T15:24:43.563Z,8.97
2022-11-13T15:27:16.003Z,8.99
2022-11-13T15:29:42.789Z,8.92
2022-11-13T15:32:11.921Z,8.93
2022-11-13T15:34:38.461Z,8.87
2022-11-13T15:37:12.939Z,8.79
2022-11-13T15:39:39.735Z,8.83
2022-11-13T15:42:12.085Z,8.97
2022-11-13T15:44:39.054Z,8.82
2022-11-13T15:47:26.638Z,8.82
2022-11-13T15:50:12.435Z,8.71
2022-11-13T15:52:42.820Z,8.69
2022-11-13T15:55:39.823Z,8.65
2022-11-13T15:58:14.378Z,8.58
2022-11-13T16:00:42.847Z,8.60
2022-11-13T16:03:12.053Z,8.61
2022-11-13T16:05:38.697Z,8.45
2022-11-13T16:08:13.404Z,8.43
2022-11-13T16:10:39.808Z,8.47
2022-11-13T16:13:06.362Z,8.49
2022-11-13T16:15:32.777Z,8.39
2022-11-13T16:18:00.655Z,8.45
2022-11-13T16:20:27.292Z,8.51
2022-11-13T16:22:54.951Z,8.49
2022-11-13T16:25:22.641Z,8.41
2022-11-13T16:27:49.156Z,8.29
2022-11-13T16:30:19.796Z,8.28
2022-11-13T16:32:46.721Z,8.30
2022-11-13T16:35:17.579Z,8.33
2022-11-13T16:37:44.230Z,8.26
2022-11-13T16:40:19.320Z,8.16
2022-11-13T16:42:45.725Z,8.06
2022-11-13T16:45:12.145Z,8.04
2022-11-13T16:47:38.734Z,8.17
2022-11-13T16:50:12.716Z,8.29
2022-11-13T16:52:39.198Z,8.18
2022-11-13T16:55:06.814Z,8.20
2022-11-13T16:57:33.492Z,8.16
2022-11-13T16:59:59.924Z,8.24
2022-11-13T17:02:26.368Z,8.26
2022-11-13T17:04:56.067Z,8.29
2022-11-13T17:07:22.646Z,8.33
2022-11-13T17:09:58.942Z,8.24
2022-11-13T17:12:35.587Z,8.16
2022-11-13T17:15:02.013Z,8.24
2022-11-13T17:17:28.780Z,8.16
2022-11-13T17:19:55.380Z,8.14
2022-11-13T17:22:21.841Z,8.04
2022-11-13T17:24:49.796Z,7.91
2022-11-13T17:27:17.001Z,7.98
2022-11-13T17:29:43.451Z,8.00
2022-11-13T17:32:09.910Z,7.99
2022-11-13T17:34:36.699Z,8.05
2022-11-13T17:37:03.154Z,8.06
2022-11-13T17:39:29.567Z,7.99
2022-11-13T17:41:55.980Z,8.01
2022-11-13T17:44:22.449Z,7.85
2022-11-13T17:46:48.862Z,7.69
2022-11-13T17:49:16.396Z,7.69
2022-11-13T17:51:42.869Z,7.70
2022-11-13T17:54:09.410Z,7.65
2022-11-13T17:56:37.640Z,7.60
2022-11-13T17:59:04.458Z,7.53
2022-11-13T18:01:31.870Z,7.42
2022-11-13T18:03:58.505Z,7.38
2022-11-13T18:06:25.292Z,7.42
2022-11-13T18:08:51.763Z,7.38
2022-11-13T18:11:24.029Z,7.42
2022-11-13T18:13:51.260Z,7.38
2022-11-13T18:16:25.545Z,7.38
2022-11-13T18:18:55.441Z,7.38
2022-11-13T18:21:29.084Z,7.42
2022-11-13T18:24:00.381Z,7.32
2022-11-13T18:26:28.226Z,7.20
2022-11-13T18:28:55.382Z,7.18
2022-11-13T18:31:23.263Z,7.37
2022-11-13T18:33:50.027Z,7.30
2022-11-13T18:36:16.831Z,7.32
2022-11-13T18:38:43.493Z,7.23
2022-11-13T18:41:15.639Z,7.30
2022-11-13T18:43:46.903Z,7.18
2022-11-13T18:46:15.141Z,7.15
2022-11-13T18:48:42.954Z,7.16
2022-11-13T18:51:14.908Z,7.17
2022-11-13T18:53:43.643Z,7.02
2022-11-13T18:56:17.512Z,7.09
2022-11-13T18:58:46.319Z,7.15
2022-11-13T19:01:21.870Z,7.14
2022-11-13T19:04:16.116Z,7.07
2022-11-13T19:06:38.098Z,7.14
2022-11-13T19:09:07.795Z,7.03
2022-11-13T19:11:34.429Z,7.07
2022-11-13T19:14:01.006Z,7.06
2022-11-13T19:16:33.426Z,7.11
2022-11-13T19:19:05.414Z,7.10
2022-11-13T19:21:33.829Z,7.07
2022-11-13T19:24:01.365Z,7.12
2022-11-13T19:26:28.468Z,7.13
2022-11-13T19:28:55.455Z,7.06
2022-11-13T19:31:24.538Z,7.08
2022-11-13T19:33:58.843Z,7.02
2022-11-13T19:36:28.032Z,7.08
2022-11-13T19:38:55.654Z,7.09
2022-11-13T19:41:22.707Z,7.05
2022-11-13T19:43:49.173Z,7.03
2022-11-13T19:46:18.052Z,7.07
2022-11-13T19:48:46.304Z,7.06
2022-11-13T19:51:24.235Z,6.99
2022-11-13T19:53:59.321Z,6.96
2022-11-13T19:56:28.326Z,7.02
2022-11-13T19:58:55.521Z,7.00
2022-11-13T20:01:25.062Z,7.04
2022-11-13T20:03:59.978Z,6.89
2022-11-13T20:06:28.299Z,6.88
2022-11-13T20:08:54.926Z,6.86
2022-11-13T20:11:21.351Z,6.88
2022-11-13T20:13:47.782Z,6.85
2022-11-13T20:16:15.729Z,6.80
2022-11-13T20:18:43.237Z,6.73
2022-11-13T20:21:09.831Z,6.84
2022-11-13T20:23:36.597Z,6.80
2022-11-13T20:26:05.963Z,6.77
2022-11-13T20:28:32.726Z,6.79
2022-11-13T20:31:07.739Z,6.81
2022-11-13T20:33:34.978Z,6.76
2022-11-13T20:36:02.321Z,6.82
2022-11-13T20:38:29.662Z,6.75
2022-11-13T20:40:56.590Z,6.79
2022-11-13T20:43:23.607Z,6.78
2022-11-13T20:45:50.286Z,6.80
2022-11-13T20:48:16.772Z,6.83
2022-11-13T20:50:43.172Z,6.84
2022-11-13T20:53:09.586Z,6.88
2022-11-13T20:55:36.283Z,6.85
2022-11-13T20:58:02.968Z,6.82
2022-11-13T21:00:29.400Z,6.82
2022-11-13T21:02:55.893Z,6.85
2022-11-13T21:05:22.337Z,6.81
2022-11-13T21:07:48.821Z,6.79
2022-11-13T21:10:15.774Z,6.88
2022-11-13T21:12:42.230Z,6.84
2022-11-13T21:15:08.954Z,6.80
2022-11-13T21:17:35.366Z,6.74
2022-11-13T21:20:02.826Z,6.72
2022-11-13T21:22:29.288Z,6.83
2022-11-13T21:24:55.704Z,6.73
2022-11-13T21:27:22.110Z,6.73
2022-11-13T21:29:48.508Z,6.62
2022-11-13T21:32:14.938Z,6.69
2022-11-13T21:34:41.346Z,6.58
2022-11-13T21:37:08.158Z,6.60
2022-11-13T21:39:34.652Z,6.55
2022-11-13T21:42:01.071Z,6.69
2022-11-13T21:44:27.474Z,6.58
2022-11-13T21:46:54.176Z,6.56
2022-11-13T21:49:20.613Z,6.52
2022-11-13T21:51:47.112Z,6.64
2022-11-13T21:54:13.649Z,6.68
2022-11-13T21:56:41.848Z,6.72
2022-11-13T21:59:08.715Z,6.69
2022-11-13T22:01:38.464Z,6.62
2022-11-13T22:04:05.704Z,6.55
2022-11-13T22:06:36.243Z,6.60
2022-11-13T22:09:04.674Z,6.57
2022-11-13T22:11:34.587Z,6.58
2022-11-13T22:14:01.421Z,6.57
2022-11-13T22:16:32.094Z,6.59
2022-11-13T22:19:01.436Z,6.58
2022-11-13T22:21:28.957Z,6.65
2022-11-13T22:23:55.884Z,6.50
2022-11-13T22:26:24.043Z,6.50
2022-11-13T22:28:51.671Z,6.51
2022-11-13T22:31:20.606Z,6.48
2022-11-13T22:33:50.440Z,6.46
2022-11-13T22:36:21.753Z,6.50
2022-11-13T22:38:48.593Z,6.66
2022-11-13T22:41:22.613Z,6.59
2022-11-13T22:43:54.828Z,6.50
2022-11-13T22:46:23.870Z,6.43
2022-11-13T22:48:52.140Z,6.46
2022-11-13T22:51:22.750Z,6.45
2022-11-13T22:53:52.156Z,6.48
2022-11-13T22:56:19.868Z,6.55
2022-11-13T22:58:46.725Z,6.54
2022-11-13T23:01:14.478Z,6.46
2022-11-13T23:03:43.174Z,6.51
2022-11-13T23:06:10.893Z,6.48
2022-11-13T23:08:39.014Z,6.46
2022-11-13T23:11:14.359Z,6.37
2022-11-13T23:13:42.816Z,6.45
2022-11-13T23:16:11.519Z,6.46
2022-11-13T23:18:38.994Z,6.40
2022-11-13T23:21:06.657Z,6.36
2022-11-13T23:23:34.281Z,6.40
2022-11-13T23:26:00.922Z,6.36
2022-11-13T23:28:28.299Z,6.39
2022-11-13T23:30:55.455Z,6.32
2022-11-13T23:33:22.339Z,6.28
2022-11-13T23:35:49.609Z,6.19
2022-11-13T23:38:16.247Z,6.34
2022-11-13T23:40:42.879Z,6.30
2022-11-13T23:43:09.932Z,6.32
2022-11-13T23:45:36.343Z,6.34
2022-11-13T23:48:02.873Z,6.35
2022-11-13T23:50:29.300Z,6.42
2022-11-13T23:52:55.824Z,6.52
2022-11-13T23:55:23.547Z,6.47
2022-11-13T23:58:01.132Z,6.50
